Time;durP1;ratioP1;P1;durP2;ratioP2;P2;SDS_P1;SDS_P2;PMS_P1;PMS_P2;Temp;Humidity;BMP_temperature;BMP_pressure;BME280_temperature;BME280_humidity;BME280_pressure;Samples;Min_cycle;Max_cycle;Signal;HPM_P1;HPM_P2
2022/11/29 00:01:39;;;;;;;24.67;12.90;;;10.10;99.90;;;;;;5076244;28;20539;-74
2022/11/29 00:04:06;;;;;;;14.97;12.43;;;10.10;99.90;;;;;;5075511;28;20859;-73
2022/11/29 00:06:34;;;;;;;14.80;11.83;;;10.20;99.90;;;;;;5075218;28;20455;-73
2022/11/29 00:09:05;;;;;;;19.97;12.20;;;10.20;99.90;;;;;;5075365;28;20448;-73
2022/11/29 00:14:23;;;;;;;17.63;13.17;;;10.20;99.90;;;;;;5047849;28;20466;-74
2022/11/29 00:16:51;;;;;;;19.90;12.53;;;10.20;99.90;;;;;;5074003;28;20444;-74
2022/11/29 00:19:18;;;;;;;15.70;12.60;;;10.20;99.90;;;;;;5075217;28;20490;-74
2022/11/29 00:21:45;;;;;;;19.40;13.30;;;10.20;99.90;;;;;;5075440;28;20482;-74
2022/11/29 00:24:13;;;;;;;19.50;13.57;;;10.20;99.90;;;;;;5075391;28;20472;-73
2022/11/29 00:26:41;;;;;;;19.97;14.00;;;10.20;99.90;;;;;;5075546;28;20962;-74
2022/11/29 00:29:08;;;;;;;19.30;13.17;;;10.20;99.90;;;;;;5075714;28;20449;-73
2022/11/29 00:31:35;;;;;;;24.60;14.03;;;10.20;99.90;;;;;;5075652;28;20480;-73
2022/11/29 00:34:05;;;;;;;18.53;13.60;;;10.20;99.90;;;;;;5075011;28;20464;-74
2022/11/29 00:36:32;;;;;;;17.90;14.20;;;10.20;99.90;;;;;;5076055;28;20458;-73
2022/11/29 00:38:59;;;;;;;17.00;13.77;;;10.20;99.90;;;;;;5079006;28;20543;-74
2022/11/29 00:41:27;;;;;;;19.60;13.87;;;10.20;99.90;;;;;;5078770;28;20486;-74
2022/11/29 00:43:54;;;;;;;17.30;12.93;;;10.20;99.90;;;;;;5079139;28;20834;-73
2022/11/29 00:46:21;;;;;;;17.33;13.10;;;10.30;99.90;;;;;;5078768;28;20452;-73
2022/11/29 00:48:48;;;;;;;14.77;12.13;;;10.30;99.90;;;;;;5078775;28;20444;-74
2022/11/29 00:51:15;;;;;;;14.87;12.73;;;10.30;99.90;;;;;;5078940;28;20450;-74
2022/11/29 00:53:41;;;;;;;19.10;13.23;;;10.30;99.90;;;;;;5079313;28;20952;-74
2022/11/29 00:56:08;;;;;;;23.33;13.20;;;10.30;99.90;;;;;;5079106;28;20436;-73
2022/11/29 00:58:37;;;;;;;14.17;12.10;;;10.30;99.90;;;;;;5078721;28;20471;-73
2022/11/29 01:01:05;;;;;;;21.17;13.10;;;10.30;99.90;;;;;;5078993;28;20481;-74
2022/11/29 01:03:32;;;;;;;18.93;13.77;;;10.30;99.90;;;;;;5078112;28;20479;-73
2022/11/29 01:06:03;;;;;;;19.10;13.80;;;10.30;99.90;;;;;;5078847;28;20946;-73
2022/11/29 01:08:30;;;;;;;16.40;13.27;;;10.30;99.90;;;;;;5078980;28;20432;-74
2022/11/29 01:11:06;;;;;;;15.30;11.67;;;10.30;99.90;;;;;;5078905;28;20440;-74
2022/11/29 01:13:33;;;;;;;17.77;12.83;;;10.30;99.90;;;;;;5078555;28;20469;-74
2022/11/29 01:16:02;;;;;;;18.90;13.80;;;10.30;99.90;;;;;;5078036;28;20452;-74
2022/11/29 01:18:30;;;;;;;17.03;13.50;;;10.30;99.90;;;;;;5078753;28;20448;-74
2022/11/29 01:21:00;;;;;;;18.93;13.87;;;10.30;99.90;;;;;;5079165;28;20540;-74
2022/11/29 01:23:27;;;;;;;21.30;12.93;;;10.30;99.90;;;;;;5079102;28;20471;-74
2022/11/29 01:25:57;;;;;;;21.60;12.77;;;10.30;99.90;;;;;;5078915;28;20452;-74
2022/11/29 01:28:24;;;;;;;15.73;12.00;;;10.30;99.90;;;;;;5078456;28;20448;-74
2022/11/29 01:30:51;;;;;;;18.90;13.50;;;10.30;99.90;;;;;;5078295;28;20444;-74
2022/11/29 01:33:19;;;;;;;20.40;13.87;;;10.30;99.90;;;;;;5078674;28;20467;-74
2022/11/29 01:35:50;;;;;;;16.00;11.80;;;10.30;99.90;;;;;;5078603;28;20456;-74
2022/11/29 01:38:17;;;;;;;19.77;12.20;;;10.30;99.90;;;;;;5078252;28;20459;-74
2022/11/29 01:40:44;;;;;;;23.17;14.77;;;10.30;99.90;;;;;;5078014;28;20488;-73
2022/11/29 01:43:16;;;;;;;14.40;12.20;;;10.20;99.90;;;;;;5077750;28;20475;-73
2022/11/29 01:45:44;;;;;;;24.30;14.80;;;10.20;99.90;;;;;;5078287;28;20459;-73
2022/11/29 01:48:13;;;;;;;17.53;13.40;;;10.20;99.90;;;;;;5077123;28;20463;-73
2022/11/29 01:50:42;;;;;;;20.00;14.10;;;10.20;99.90;;;;;;5078188;28;20437;-74
2022/11/29 01:53:11;;;;;;;18.23;13.10;;;10.10;99.90;;;;;;5077815;28;20500;-73
2022/11/29 01:55:41;;;;;;;15.67;11.70;;;10.10;99.90;;;;;;5078139;28;20482;-73
2022/11/29 01:58:08;;;;;;;27.03;13.03;;;10.10;99.90;;;;;;5077611;28;20431;-74
2022/11/29 02:00:36;;;;;;;19.53;13.50;;;10.10;99.90;;;;;;5078124;28;20486;-74
2022/11/29 02:03:08;;;;;;;17.20;13.70;;;10.10;99.90;;;;;;5077441;28;20479;-74
2022/11/29 02:05:36;;;;;;;21.80;14.47;;;10.00;99.90;;;;;;5076668;28;20437;-74
2022/11/29 02:08:05;;;;;;;17.40;13.70;;;10.00;99.90;;;;;;5077075;28;20842;-74
2022/11/29 02:10:41;;;;;;;21.60;14.70;;;10.00;99.90;;;;;;5076560;28;20459;-74
2022/11/29 02:13:14;;;;;;;21.93;13.73;;;10.00;99.90;;;;;;5077047;28;20510;-74
2022/11/29 02:15:46;;;;;;;19.40;13.13;;;10.00;99.90;;;;;;5076981;28;20432;-74
2022/11/29 02:18:18;;;;;;;21.50;14.17;;;10.00;99.90;;;;;;5076310;28;20954;-74
2022/11/29 02:21:13;;;;;;;18.90;14.17;;;10.00;99.90;;;;;;5075962;28;20983;-74
2022/11/29 02:24:22;;;;;;;23.50;13.70;;;10.00;99.90;;;;;;5076466;28;20465;-74
2022/11/29 02:27:15;;;;;;;23.77;14.43;;;10.00;99.90;;;;;;5050098;28;20505;-74
2022/11/29 02:30:15;;;;;;;28.83;14.90;;;10.00;99.90;;;;;;5076508;28;20805;-74
2022/11/29 02:33:23;;;;;;;22.03;14.20;;;9.90;99.90;;;;;;5076495;28;20469;-74
2022/11/29 02:36:09;;;;;;;21.13;14.70;;;9.90;99.90;;;;;;5076160;28;20439;-74
2022/11/29 02:38:58;;;;;;;19.63;14.33;;;9.90;99.90;;;;;;5076210;28;20791;-74
2022/11/29 02:41:39;;;;;;;19.23;15.10;;;9.90;99.90;;;;;;5073611;28;20479;-74
2022/11/29 02:44:31;;;;;;;21.90;14.83;;;9.90;99.90;;;;;;5076901;28;20521;-74
2022/11/29 02:47:15;;;;;;;23.17;15.77;;;10.00;99.90;;;;;;5077633;28;20444;-73
2022/11/29 02:49:58;;;;;;;27.37;15.73;;;10.00;99.90;;;;;;5079372;28;20426;-74
2022/11/29 02:52:32;;;;;;;27.27;15.57;;;9.90;99.90;;;;;;5082183;28;20498;-74
2022/11/29 02:55:05;;;;;;;26.80;16.80;;;9.90;99.90;;;;;;5085255;28;20437;-74
2022/11/29 02:57:40;;;;;;;28.17;17.03;;;9.90;99.90;;;;;;5090770;28;20436;-74
2022/11/29 03:00:09;;;;;;;31.13;16.80;;;9.90;99.90;;;;;;5092952;28;20431;-74
2022/11/29 03:02:43;;;;;;;32.80;17.70;;;9.90;99.90;;;;;;5096474;28;20479;-74
2022/11/29 03:05:18;;;;;;;28.17;18.23;;;9.90;99.90;;;;;;5097202;28;20436;-74
2022/11/29 03:07:53;;;;;;;27.83;16.70;;;9.90;99.90;;;;;;5094579;28;20428;-73
2022/11/29 03:10:30;;;;;;;29.30;18.97;;;10.00;99.90;;;;;;5089198;28;20435;-73
2022/11/29 03:12:58;;;;;;;33.40;17.70;;;10.00;99.90;;;;;;5083128;28;20833;-73
2022/11/29 03:15:30;;;;;;;31.23;18.70;;;9.90;99.90;;;;;;5079191;28;20815;-74
2022/11/29 03:18:10;;;;;;;35.97;19.20;;;9.90;99.90;;;;;;5078556;28;20916;-74
2022/11/29 03:20:52;;;;;;;42.53;19.10;;;10.00;99.90;;;;;;5076473;28;20436;-74
2022/11/29 03:23:24;;;;;;;35.07;21.63;;;10.00;99.90;;;;;;5076546;28;20657;-74
2022/11/29 03:25:57;;;;;;;32.60;18.23;;;10.00;99.90;;;;;;5076296;28;20440;-74
2022/11/29 03:28:29;;;;;;;36.33;18.50;;;10.00;99.90;;;;;;5075718;28;20924;-74
2022/11/29 03:31:03;;;;;;;33.73;19.23;;;10.00;99.90;;;;;;5076755;28;20435;-74
2022/11/29 03:33:37;;;;;;;44.27;21.93;;;10.00;99.90;;;;;;5076272;28;20471;-74
2022/11/29 03:36:12;;;;;;;50.33;20.07;;;10.10;99.90;;;;;;5076312;28;20798;-74
2022/11/29 03:38:41;;;;;;;34.30;19.60;;;10.00;99.90;;;;;;5075814;28;20428;-74
2022/11/29 03:41:19;;;;;;;35.03;19.43;;;10.10;99.90;;;;;;5076574;28;20846;-74
2022/11/29 03:43:54;;;;;;;48.63;21.40;;;10.10;99.90;;;;;;5077109;28;20467;-74
2022/11/29 03:46:27;;;;;;;45.70;22.20;;;10.10;99.90;;;;;;5078187;28;20943;-74
2022/11/29 03:49:00;;;;;;;54.60;22.30;;;10.10;99.90;;;;;;5079155;28;20440;-74
2022/11/29 03:51:38;;;;;;;53.23;24.90;;;10.00;99.90;;;;;;5079255;28;20482;-74
2022/11/29 03:54:10;;;;;;;53.97;23.77;;;10.00;99.90;;;;;;5079020;28;20478;-74
2022/11/29 03:56:39;;;;;;;51.77;24.90;;;9.90;99.90;;;;;;5078849;28;20431;-74
2022/11/29 03:59:16;;;;;;;56.97;26.33;;;9.90;99.90;;;;;;5079521;28;20480;-74
2022/11/29 04:02:26;;;;;;;60.30;26.63;;;9.90;99.90;;;;;;5079372;28;20472;-74
2022/11/29 04:05:15;;;;;;;79.50;25.63;;;10.00;99.90;;;;;;5078237;28;20444;-74
2022/11/29 04:08:00;;;;;;;77.47;28.23;;;9.90;99.90;;;;;;5077133;28;20455;-73
2022/11/29 04:10:59;;;;;;;61.83;27.20;;;9.80;99.90;;;;;;5077325;28;20961;-73
2022/11/29 04:14:22;;;;;;;83.93;26.00;;;9.90;99.90;;;;;;5074959;28;20475;-73
2022/11/29 04:17:27;;;;;;;61.93;26.90;;;9.90;99.90;;;;;;5080801;28;20453;-73
2022/11/29 04:20:30;;;;;;;68.97;27.17;;;9.90;99.90;;;;;;5080326;28;20435;-74
2022/11/29 04:23:32;;;;;;;55.83;27.30;;;9.90;99.90;;;;;;5080009;28;20486;-74
2022/11/29 04:26:28;;;;;;;64.80;26.97;;;9.90;99.90;;;;;;5079960;28;20462;-74
2022/11/29 04:29:19;;;;;;;65.23;25.17;;;9.90;99.90;;;;;;5080120;28;20472;-74
2022/11/29 04:32:03;;;;;;;56.90;26.60;;;9.90;99.90;;;;;;5080569;28;20479;-74
2022/11/29 04:34:56;;;;;;;61.53;27.23;;;9.90;99.90;;;;;;5079592;28;20432;-74
2022/11/29 04:38:01;;;;;;;68.40;27.20;;;9.90;99.90;;;;;;5079376;28;20470;-74
2022/11/29 04:40:45;;;;;;;69.27;27.20;;;9.90;99.90;;;;;;5079972;28;20436;-74
2022/11/29 04:43:34;;;;;;;77.03;31.50;;;9.90;99.90;;;;;;5079148;28;20490;-74
2022/11/29 04:46:21;;;;;;;74.27;29.17;;;9.90;99.90;;;;;;5079519;28;20432;-74
2022/11/29 04:49:10;;;;;;;62.47;27.33;;;10.00;99.90;;;;;;5079471;28;20437;-74
2022/11/29 04:51:59;;;;;;;57.23;28.07;;;10.00;99.90;;;;;;5079421;28;20930;-74
2022/11/29 04:54:34;;;;;;;75.60;32.13;;;10.00;99.90;;;;;;5079163;28;20970;-74
2022/11/29 04:57:08;;;;;;;73.80;31.03;;;10.00;99.90;;;;;;5079133;28;20446;-74
2022/11/29 04:59:44;;;;;;;60.27;29.97;;;10.10;99.90;;;;;;5079038;28;20436;-74
2022/11/29 05:02:23;;;;;;;61.87;29.70;;;10.10;99.90;;;;;;5079596;28;20491;-74
2022/11/29 05:04:58;;;;;;;90.80;33.87;;;10.10;99.90;;;;;;5080262;28;20450;-74
2022/11/29 05:07:32;;;;;;;65.30;30.50;;;10.10;99.90;;;;;;5078608;28;20973;-74
2022/11/29 05:10:11;;;;;;;75.27;33.47;;;10.20;99.90;;;;;;5078180;28;20435;-74
2022/11/29 05:12:45;;;;;;;77.93;32.53;;;10.20;99.90;;;;;;5078667;28;20463;-74
2022/11/29 05:15:38;;;;;;;83.97;34.20;;;10.20;99.90;;;;;;5078958;28;20436;-74
2022/11/29 05:18:12;;;;;;;87.50;34.63;;;10.20;99.90;;;;;;5078731;28;20822;-74
2022/11/29 05:20:46;;;;;;;89.70;34.50;;;10.20;99.90;;;;;;5079063;28;20427;-74
2022/11/29 05:23:27;;;;;;;77.30;32.87;;;10.10;99.90;;;;;;5076917;28;20495;-75
2022/11/29 05:26:00;;;;;;;94.33;32.60;;;10.10;99.90;;;;;;5078772;28;20432;-74
2022/11/29 05:28:37;;;;;;;78.10;32.53;;;10.10;99.90;;;;;;5078852;28;20490;-74
2022/11/29 05:31:19;;;;;;;70.63;33.67;;;10.20;99.90;;;;;;5078835;28;20439;-74
2022/11/29 05:34:08;;;;;;;79.00;33.93;;;10.20;99.90;;;;;;5079148;28;20476;-73
2022/11/29 05:36:40;;;;;;;85.40;33.73;;;10.20;99.90;;;;;;5079296;28;20470;-74
2022/11/29 05:39:29;;;;;;;81.10;33.50;;;10.20;99.90;;;;;;5078453;28;20441;-74
2022/11/29 05:42:15;;;;;;;81.67;35.27;;;10.20;99.90;;;;;;5078438;28;20468;-74
2022/11/29 05:44:47;;;;;;;80.40;31.80;;;10.20;99.90;;;;;;5066587;28;20817;-74
2022/11/29 05:47:19;;;;;;;80.90;34.10;;;10.20;99.90;;;;;;5079697;28;20432;-74
2022/11/29 05:49:56;;;;;;;75.07;32.97;;;10.20;99.90;;;;;;5078854;28;20430;-74
2022/11/29 05:52:28;;;;;;;70.60;31.47;;;10.20;99.90;;;;;;5078652;28;20466;-74
2022/11/29 05:55:09;;;;;;;76.37;33.03;;;10.20;99.90;;;;;;5080561;28;20441;-73
2022/11/29 05:57:43;;;;;;;78.10;32.93;;;10.20;99.90;;;;;;5083588;28;20439;-73
2022/11/29 06:00:15;;;;;;;82.60;32.30;;;10.20;99.90;;;;;;5081570;28;20439;-72
2022/11/29 06:02:51;;;;;;;71.70;30.47;;;10.20;99.90;;;;;;5079650;28;20489;-73
2022/11/29 06:05:25;;;;;;;78.63;33.63;;;10.20;99.90;;;;;;5079997;28;20440;-73
2022/11/29 06:07:58;;;;;;;84.93;33.50;;;10.20;99.90;;;;;;5079307;28;20474;-73
2022/11/29 06:10:28;;;;;;;77.40;35.30;;;10.20;99.90;;;;;;5080936;28;20432;-72
2022/11/29 06:13:04;;;;;;;76.90;33.50;;;10.20;99.90;;;;;;5065334;28;20464;-72
2022/11/29 06:15:50;;;;;;;84.63;33.83;;;10.20;99.90;;;;;;5082854;28;20432;-72
2022/11/29 06:18:35;;;;;;;91.20;36.03;;;10.10;99.90;;;;;;5080731;28;20428;-73
2022/11/29 06:21:13;;;;;;;85.30;35.50;;;10.10;99.90;;;;;;5082741;28;20919;-72
2022/11/29 06:24:02;;;;;;;79.37;33.47;;;10.10;99.90;;;;;;5083581;28;20490;-73
2022/11/29 06:26:49;;;;;;;92.63;35.00;;;10.10;99.90;;;;;;5082942;28;20437;-73
2022/11/29 06:29:34;;;;;;;78.77;32.80;;;10.10;99.90;;;;;;5079479;28;20436;-72
2022/11/29 06:32:11;;;;;;;85.60;32.30;;;10.10;99.90;;;;;;5078843;28;20494;-73
2022/11/29 06:34:46;;;;;;;80.93;31.60;;;10.10;99.90;;;;;;5077914;28;20436;-72
2022/11/29 06:37:16;;;;;;;83.97;35.50;;;10.20;99.90;;;;;;5077985;28;20465;-72
2022/11/29 06:39:44;;;;;;;79.53;32.47;;;10.20;99.90;;;;;;5080119;28;20938;-72
2022/11/29 06:42:10;;;;;;;82.97;32.53;;;10.20;99.90;;;;;;5080361;28;20498;-72
2022/11/29 06:44:38;;;;;;;91.07;35.17;;;10.20;99.90;;;;;;5079606;28;20455;-73
2022/11/29 06:47:09;;;;;;;89.40;34.80;;;10.30;99.90;;;;;;5079914;28;20455;-73
2022/11/29 06:49:42;;;;;;;75.97;33.63;;;10.30;99.90;;;;;;5080292;28;20443;-73
2022/11/29 06:52:21;;;;;;;75.90;33.47;;;10.30;99.90;;;;;;5079597;28;20468;-72
2022/11/29 06:55:01;;;;;;;84.77;34.77;;;10.30;99.90;;;;;;5079321;28;20435;-72
2022/11/29 06:57:36;;;;;;;75.30;33.47;;;10.30;99.90;;;;;;5078947;28;20947;-72
2022/11/29 07:00:11;;;;;;;80.97;33.13;;;10.30;99.90;;;;;;5079416;28;20431;-73
2022/11/29 07:03:05;;;;;;;79.13;33.20;;;10.30;99.90;;;;;;5079629;28;20491;-73
2022/11/29 07:05:34;;;;;;;90.43;33.47;;;10.30;99.90;;;;;;5080478;28;20451;-72
2022/11/29 07:08:03;;;;;;;72.63;31.73;;;10.30;99.90;;;;;;5081429;28;20507;-72
2022/11/29 07:10:34;;;;;;;86.43;32.87;;;10.30;99.90;;;;;;5083970;28;20462;-73
2022/11/29 07:13:01;;;;;;;79.63;32.10;;;10.30;99.90;;;;;;5082164;28;20471;-73
2022/11/29 07:15:29;;;;;;;72.27;30.77;;;10.40;99.90;;;;;;5083234;28;20445;-72
2022/11/29 07:18:22;;;;;;;70.67;33.50;;;10.30;99.90;;;;;;5082356;28;20443;-72
2022/11/29 07:20:58;;;;;;;67.77;29.77;;;10.40;99.90;;;;;;5080789;28;20447;-72
2022/11/29 07:23:33;;;;;;;68.47;29.40;;;10.40;99.90;;;;;;5082248;28;20487;-73
2022/11/29 07:26:14;;;;;;;72.60;31.27;;;10.40;99.90;;;;;;5085173;28;20443;-72
2022/11/29 07:28:56;;;;;;;65.90;31.10;;;10.40;99.90;;;;;;5085006;28;20941;-72
2022/11/29 07:31:38;;;;;;;70.50;30.50;;;10.40;99.90;;;;;;5083174;28;20445;-72
2022/11/29 07:34:13;;;;;;;70.37;31.83;;;10.40;99.90;;;;;;5084385;28;20459;-72
2022/11/29 07:36:47;;;;;;;70.20;31.43;;;10.40;99.90;;;;;;5087058;28;20531;-72
2022/11/29 07:39:24;;;;;;;63.80;30.77;;;10.40;99.90;;;;;;5091127;28;20443;-72
2022/11/29 07:42:02;;;;;;;69.10;33.07;;;10.40;99.90;;;;;;5098826;28;20417;-71
2022/11/29 07:44:37;;;;;;;72.40;31.43;;;10.40;99.90;;;;;;5099329;28;20432;-71
2022/11/29 07:47:04;;;;;;;67.57;30.70;;;10.40;99.90;;;;;;5098684;28;20442;-70
2022/11/29 07:49:32;;;;;;;69.73;31.60;;;10.40;99.90;;;;;;5099145;28;20421;-71
2022/11/29 07:51:58;;;;;;;73.67;29.37;;;10.40;99.90;;;;;;5098686;28;20436;-71
2022/11/29 07:54:25;;;;;;;70.27;29.77;;;10.50;99.90;;;;;;5098537;28;20449;-71
2022/11/29 07:56:52;;;;;;;68.77;30.23;;;10.50;99.90;;;;;;5098599;28;20422;-72
2022/11/29 07:59:19;;;;;;;62.00;29.83;;;10.50;99.90;;;;;;5097937;28;20421;-72
2022/11/29 08:01:46;;;;;;;57.60;29.97;;;10.50;99.90;;;;;;5097362;28;20436;-72
2022/11/29 08:04:12;;;;;;;67.83;29.13;;;10.40;99.90;;;;;;5096264;28;20469;-72
2022/11/29 08:06:41;;;;;;;65.17;30.27;;;10.40;99.90;;;;;;5095206;28;20930;-73
2022/11/29 08:09:07;;;;;;;61.67;29.80;;;10.30;99.90;;;;;;5095119;28;20426;-71
2022/11/29 08:11:34;;;;;;;60.40;29.97;;;10.30;99.90;;;;;;5098985;28;20418;-70
2022/11/29 08:14:03;;;;;;;64.87;30.53;;;10.20;99.90;;;;;;5098707;28;20469;-72
2022/11/29 08:16:31;;;;;;;66.23;31.00;;;10.20;99.90;;;;;;5097367;28;20432;-72
2022/11/29 08:18:57;;;;;;;59.07;28.33;;;10.20;99.90;;;;;;5092414;28;20429;-72
2022/11/29 08:21:24;;;;;;;60.93;29.90;;;10.20;99.90;;;;;;5093560;28;20455;-72
2022/11/29 08:23:52;;;;;;;61.37;27.67;;;10.20;99.90;;;;;;5094031;28;20479;-73
2022/11/29 08:26:21;;;;;;;63.27;29.23;;;10.30;99.90;;;;;;5093651;28;20436;-73
2022/11/29 08:28:51;;;;;;;65.77;27.80;;;10.30;99.90;;;;;;5092246;28;20448;-72
2022/11/29 08:31:18;;;;;;;52.00;26.57;;;10.30;99.90;;;;;;5089800;28;20491;-72
2022/11/29 08:33:45;;;;;;;50.73;27.93;;;10.30;99.90;;;;;;5088034;28;20464;-73
2022/11/29 08:36:14;;;;;;;59.03;28.80;;;10.30;99.90;;;;;;5086502;28;20450;-73
2022/11/29 08:38:41;;;;;;;58.30;27.87;;;10.40;99.90;;;;;;5086459;28;20435;-73
2022/11/29 08:41:11;;;;;;;58.07;28.30;;;10.40;99.90;;;;;;5086294;28;20440;-72
2022/11/29 08:43:38;;;;;;;63.53;29.17;;;10.40;99.90;;;;;;5086201;28;20499;-73
2022/11/29 08:46:05;;;;;;;50.33;26.30;;;10.40;99.90;;;;;;5086618;28;20462;-73
2022/11/29 08:48:32;;;;;;;53.60;27.70;;;10.40;99.90;;;;;;5085946;28;20448;-73
2022/11/29 08:50:58;;;;;;;51.47;27.23;;;10.40;99.90;;;;;;5084635;28;20436;-73
2022/11/29 08:53:40;;;;;;;48.33;25.37;;;10.40;99.90;;;;;;5084168;28;20471;-73
2022/11/29 08:56:09;;;;;;;50.27;26.30;;;10.40;99.90;;;;;;5083690;28;20442;-73
2022/11/29 08:58:36;;;;;;;57.20;27.57;;;10.40;99.90;;;;;;5085395;28;20449;-72
2022/11/29 09:01:03;;;;;;;52.70;27.93;;;10.40;99.90;;;;;;5088573;28;20443;-72
2022/11/29 09:06:17;;;;;;;55.97;28.23;;;10.40;99.90;;;;;;5092251;28;20444;-72
2022/11/29 09:08:44;;;;;;;57.57;27.30;;;10.40;99.90;;;;;;5090214;28;20452;-73
2022/11/29 09:11:15;;;;;;;63.60;30.13;;;10.40;99.90;;;;;;5089258;28;20447;-74
2022/11/29 09:13:42;;;;;;;61.53;29.47;;;10.30;99.90;;;;;;5086652;28;20474;-74
2022/11/29 09:16:11;;;;;;;59.03;27.07;;;10.40;99.90;;;;;;5089140;28;20452;-74
2022/11/29 09:18:39;;;;;;;55.23;26.90;;;10.30;99.90;;;;;;5089872;28;20448;-74
2022/11/29 09:21:06;;;;;;;66.17;26.27;;;10.30;99.90;;;;;;5090048;28;20961;-74
2022/11/29 09:23:33;;;;;;;64.43;27.17;;;10.40;99.90;;;;;;5089784;28;20521;-74
2022/11/29 09:26:00;;;;;;;51.03;26.60;;;10.40;99.90;;;;;;5093399;28;20440;-74
2022/11/29 09:28:28;;;;;;;55.87;27.07;;;10.40;99.90;;;;;;5090897;28;20457;-74
2022/11/29 09:30:55;;;;;;;58.03;26.40;;;10.40;99.90;;;;;;5089077;28;20448;-73
2022/11/29 09:33:21;;;;;;;65.40;27.53;;;10.40;99.90;;;;;;5087602;28;20468;-73
2022/11/29 09:35:48;;;;;;;60.07;27.50;;;10.50;99.90;;;;;;5088421;28;20452;-74
2022/11/29 09:38:15;;;;;;;59.20;28.57;;;10.40;99.90;;;;;;5092619;28;20481;-74
2022/11/29 09:40:48;;;;;;;68.27;28.20;;;10.40;99.90;;;;;;5089690;28;20443;-74
2022/11/29 09:43:24;;;;;;;56.13;25.57;;;10.40;99.90;;;;;;5085189;28;20483;-74
2022/11/29 09:45:59;;;;;;;61.00;28.00;;;10.50;99.90;;;;;;5077458;28;20437;-73
2022/11/29 09:48:45;;;;;;;52.60;24.40;;;10.50;99.90;;;;;;5080914;28;20439;-73
2022/11/29 09:51:19;;;;;;;54.50;25.97;;;10.40;99.90;;;;;;5079976;28;20436;-72
2022/11/29 09:53:58;;;;;;;55.77;26.27;;;10.40;99.90;;;;;;5080123;28;20977;-73
2022/11/29 09:56:30;;;;;;;51.30;23.30;;;10.50;99.90;;;;;;5079809;28;20440;-73
2022/11/29 09:59:02;;;;;;;55.60;23.77;;;10.50;99.90;;;;;;5079543;28;20444;-72
2022/11/29 10:01:35;;;;;;;53.57;24.03;;;10.60;99.90;;;;;;5079166;28;20810;-73
2022/11/29 10:04:05;;;;;;;56.83;26.50;;;10.60;99.90;;;;;;5079693;28;20496;-73
2022/11/29 10:06:38;;;;;;;53.67;24.17;;;10.70;99.90;;;;;;5078623;28;20913;-73
2022/11/29 10:09:13;;;;;;;47.73;25.07;;;10.70;99.90;;;;;;5077611;28;20438;-72
2022/11/29 10:11:47;;;;;;;54.67;26.90;;;10.70;99.90;;;;;;5078775;28;20780;-73
2022/11/29 10:14:19;;;;;;;61.20;28.17;;;10.60;99.90;;;;;;5078724;28;20457;-72
2022/11/29 10:16:51;;;;;;;52.60;25.00;;;10.70;99.90;;;;;;5079115;28;20432;-72
2022/11/29 10:19:25;;;;;;;53.03;24.57;;;10.80;99.90;;;;;;5079095;28;20435;-73
2022/11/29 10:21:57;;;;;;;46.93;25.57;;;10.90;99.90;;;;;;5078416;28;20446;-72
2022/11/29 10:24:26;;;;;;;47.80;24.43;;;10.90;99.90;;;;;;5078467;28;20555;-72
2022/11/29 10:26:53;;;;;;;42.03;23.40;;;10.80;99.90;;;;;;5078805;28;20474;-72
2022/11/29 10:29:21;;;;;;;49.13;23.80;;;10.90;99.90;;;;;;5078798;28;20452;-72
2022/11/29 10:31:53;;;;;;;47.23;23.10;;;11.00;99.90;;;;;;5078439;28;20452;-73
2022/11/29 10:34:23;;;;;;;43.47;24.67;;;11.00;99.90;;;;;;5078968;28;20432;-73
2022/11/29 10:36:53;;;;;;;43.17;25.57;;;11.10;99.90;;;;;;5077892;28;20551;-72
2022/11/29 10:39:24;;;;;;;49.13;25.13;;;11.10;99.90;;;;;;5078320;28;20463;-72
2022/11/29 10:41:55;;;;;;;39.87;24.00;;;11.20;99.90;;;;;;5078663;28;20431;-73
2022/11/29 10:44:22;;;;;;;38.80;22.83;;;11.20;99.90;;;;;;5077687;28;20472;-73
2022/11/29 10:46:50;;;;;;;39.23;23.07;;;11.20;99.90;;;;;;5077876;28;20455;-73
2022/11/29 10:49:20;;;;;;;43.10;23.60;;;11.30;99.90;;;;;;5077472;28;20967;-72
2022/11/29 10:51:47;;;;;;;34.67;20.80;;;11.30;99.90;;;;;;5077933;28;20964;-72
2022/11/29 10:54:27;;;;;;;40.63;25.57;;;11.40;99.90;;;;;;5079077;28;20465;-72
2022/11/29 10:56:56;;;;;;;42.23;24.57;;;11.40;99.90;;;;;;5077837;28;20432;-73
2022/11/29 10:59:25;;;;;;;47.07;26.10;;;11.50;99.90;;;;;;5078321;28;20463;-73
2022/11/29 11:01:53;;;;;;;46.20;25.97;;;11.50;99.90;;;;;;5077745;28;20452;-74
2022/11/29 11:04:27;;;;;;;45.53;25.77;;;11.50;99.90;;;;;;5077532;28;21018;-73
2022/11/29 11:06:56;;;;;;;44.83;24.20;;;11.50;99.90;;;;;;5077774;28;20444;-73
2022/11/29 11:09:29;;;;;;;40.60;24.40;;;11.40;99.90;;;;;;5077491;28;20443;-73
2022/11/29 11:11:58;;;;;;;48.20;26.90;;;11.40;99.90;;;;;;5077153;28;20911;-72
2022/11/29 11:14:27;;;;;;;39.53;24.33;;;11.40;99.90;;;;;;5077243;28;20445;-72
2022/11/29 11:16:56;;;;;;;42.23;23.73;;;11.50;99.90;;;;;;5077468;28;20824;-73
2022/11/29 11:19:29;;;;;;;48.57;25.73;;;11.40;99.90;;;;;;5077939;28;20448;-73
2022/11/29 11:21:57;;;;;;;51.93;25.80;;;11.40;99.90;;;;;;5076155;28;20448;-72
2022/11/29 11:24:27;;;;;;;46.30;26.43;;;11.40;99.90;;;;;;5076904;28;21006;-73
2022/11/29 11:26:54;;;;;;;45.77;26.70;;;11.50;99.90;;;;;;5077336;28;20445;-73
2022/11/29 11:29:25;;;;;;;50.80;27.67;;;11.50;99.90;;;;;;5077453;28;20505;-73
2022/11/29 11:31:54;;;;;;;41.00;26.10;;;11.50;99.90;;;;;;5077085;28;20437;-73
2022/11/29 11:34:32;;;;;;;43.43;25.77;;;11.60;99.90;;;;;;5077669;28;20454;-72
2022/11/29 11:37:18;;;;;;;55.37;27.30;;;11.60;99.90;;;;;;5077185;28;20460;-73
2022/11/29 11:39:47;;;;;;;47.20;28.33;;;11.60;99.90;;;;;;5077831;28;20457;-73
2022/11/29 11:45:05;;;;;;;47.40;27.17;;;11.60;99.90;;;;;;5077451;28;20459;-73
2022/11/29 11:47:35;;;;;;;47.70;28.07;;;11.60;99.90;;;;;;5077240;28;20458;-73
2022/11/29 11:50:12;;;;;;;48.23;27.80;;;11.60;99.90;;;;;;5077125;28;20455;-72
2022/11/29 11:52:43;;;;;;;55.27;33.47;;;11.50;99.90;;;;;;5076992;28;20470;-73
2022/11/29 11:55:32;;;;;;;53.33;30.20;;;11.50;99.90;;;;;;5076909;28;20481;-73
2022/11/29 11:58:05;;;;;;;47.00;26.93;;;11.50;99.90;;;;;;5076547;28;20436;-73
2022/11/29 12:00:44;;;;;;;47.90;30.73;;;11.50;99.90;;;;;;5076559;28;20467;-72
2022/11/29 12:03:25;;;;;;;54.43;34.20;;;11.50;99.90;;;;;;5077172;28;20480;-73
2022/11/29 12:05:57;;;;;;;58.33;37.87;;;11.50;99.90;;;;;;5076993;28;20432;-73
2022/11/29 12:08:27;;;;;;;54.67;38.33;;;11.60;99.90;;;;;;5077693;28;20436;-73
2022/11/29 12:10:57;;;;;;;43.70;28.43;;;11.60;99.90;;;;;;5077480;28;20448;-73
2022/11/29 12:13:30;;;;;;;46.73;26.67;;;11.60;99.90;;;;;;5077268;28;20483;-73
2022/11/29 12:16:00;;;;;;;53.23;35.10;;;11.60;99.90;;;;;;5077116;28;20433;-72
2022/11/29 12:18:36;;;;;;;51.77;32.93;;;11.60;99.90;;;;;;5077700;28;20489;-73
2022/11/29 12:21:12;;;;;;;43.37;27.87;;;11.60;99.90;;;;;;5076983;28;20440;-73
2022/11/29 12:23:44;;;;;;;47.97;34.27;;;11.60;99.90;;;;;;5077006;28;20496;-73
2022/11/29 12:26:15;;;;;;;51.40;34.30;;;11.70;99.90;;;;;;5076645;28;20441;-72
2022/11/29 12:28:45;;;;;;;42.33;28.43;;;11.70;99.90;;;;;;5078807;28;20428;-73
2022/11/29 12:31:27;;;;;;;51.17;31.57;;;11.70;99.90;;;;;;5080587;28;20449;-73
2022/11/29 12:34:06;;;;;;;57.50;36.47;;;11.70;99.90;;;;;;5081945;28;20484;-73
2022/11/29 12:36:43;;;;;;;55.90;35.30;;;11.70;99.90;;;;;;5078239;28;20948;-74
2022/11/29 12:39:28;;;;;;;54.53;32.40;;;11.60;99.90;;;;;;5079200;28;20941;-73
2022/11/29 12:42:01;;;;;;;65.40;37.77;;;11.60;99.90;;;;;;5081857;28;20444;-73
2022/11/29 12:44:40;;;;;;;46.50;27.27;;;11.60;99.90;;;;;;5079811;28;20475;-72
2022/11/29 12:47:15;;;;;;;57.67;29.00;;;11.60;99.90;;;;;;5080029;28;20440;-73
2022/11/29 12:49:50;;;;;;;50.00;30.67;;;11.60;99.90;;;;;;5079445;28;20425;-73
2022/11/29 12:52:26;;;;;;;51.60;30.10;;;11.50;99.90;;;;;;5079984;28;20468;-73
2022/11/29 12:55:04;;;;;;;50.30;28.60;;;11.50;99.90;;;;;;5079466;28;20431;-73
2022/11/29 12:57:39;;;;;;;49.33;28.47;;;11.50;99.90;;;;;;5079387;28;20432;-73
2022/11/29 13:00:10;;;;;;;49.70;27.33;;;11.40;99.90;;;;;;5079135;28;20438;-72
2022/11/29 13:02:54;;;;;;;42.73;25.40;;;11.40;99.90;;;;;;5079274;28;20484;-72
2022/11/29 13:05:36;;;;;;;44.73;26.97;;;11.40;99.90;;;;;;5079140;28;20465;-72
2022/11/29 13:08:19;;;;;;;46.03;25.17;;;11.30;99.90;;;;;;5079799;28;20431;-73
2022/11/29 13:10:58;;;;;;;41.13;24.47;;;11.20;99.90;;;;;;5079327;28;20927;-73
2022/11/29 13:13:37;;;;;;;45.30;25.77;;;11.20;99.90;;;;;;5079254;28;20474;-73